Time;durP1;ratioP1;P1;durP2;ratioP2;P2;SDS_P1;SDS_P2;PMS_P1;PMS_P2;Temp;Humidity;BMP_temperature;BMP_pressure;BME280_temperature;BME280_humidity;BME280_pressure;Samples;Min_cycle;Max_cycle;Signal;HPM_P1;HPM_P2
2024/03/19 00:01:48;;;;;;;45.60;23.60;;;;;;;;;;106569;1250;63095;-76
2024/03/19 00:04:16;;;;;;;48.90;23.80;;;;;;;;;;109675;1250;59729;-77
2024/03/19 00:06:42;;;;;;;47.90;24.50;;;;;;;;;;109647;1250;61712;-77
2024/03/19 00:09:08;;;;;;;42.40;23.10;;;;;;;;;;109689;1249;59636;-77
2024/03/19 00:11:35;;;;;;;52.70;25.30;;;;;;;;;;109683;1250;59569;-78
2024/03/19 00:14:01;;;;;;;49.50;24.40;;;;;;;;;;107492;1250;63291;-77
2024/03/19 00:16:27;;;;;;;51.50;25.90;;;;;;;;;;106576;1250;62807;-77
2024/03/19 00:18:53;;;;;;;44.10;25.30;;;;;;;;;;106696;1250;62143;-77
2024/03/19 00:21:20;;;;;;;47.10;25.10;;;;;;;;;;106596;1250;62091;-77
2024/03/19 00:23:46;;;;;;;50.80;25.60;;;;;;;;;;106588;1254;62644;-77
2024/03/19 00:26:12;;;;;;;49.60;25.40;;;;;;;;;;106612;1250;62159;-78
2024/03/19 00:28:39;;;;;;;42.50;22.70;;;;;;;;;;106544;1257;63084;-77
2024/03/19 00:31:06;;;;;;;48.60;25.20;;;;;;;;;;106594;1250;62027;-77
2024/03/19 00:33:32;;;;;;;47.00;23.60;;;;;;;;;;106657;1253;62026;-77
2024/03/19 00:35:59;;;;;;;49.90;24.40;;;;;;;;;;106566;1250;62141;-76
2024/03/19 00:38:26;;;;;;;49.80;25.30;;;;;;;;;;106631;1250;62068;-77
2024/03/19 00:40:52;;;;;;;49.70;24.70;;;;;;;;;;106616;1250;62097;-77
2024/03/19 00:43:18;;;;;;;43.10;23.40;;;;;;;;;;106676;1250;62144;-78
2024/03/19 00:45:45;;;;;;;52.40;25.80;;;;;;;;;;106716;1250;62089;-76
2024/03/19 00:48:11;;;;;;;44.10;23.30;;;;;;;;;;106617;1256;62141;-76
2024/03/19 00:50:38;;;;;;;42.50;24.40;;;;;;;;;;106586;1250;61972;-76
2024/03/19 00:53:04;;;;;;;50.80;23.80;;;;;;;;;;106617;1253;62041;-77
2024/03/19 00:55:30;;;;;;;49.20;25.10;;;;;;;;;;106595;1251;62057;-77
2024/03/19 00:57:56;;;;;;;45.30;23.30;;;;;;;;;;106618;1250;62022;-77
2024/03/19 01:00:22;;;;;;;54.80;25.10;;;;;;;;;;106540;1250;62034;-76
2024/03/19 01:02:49;;;;;;;59.10;28.00;;;;;;;;;;106558;1256;63185;-77
2024/03/19 01:05:15;;;;;;;55.30;26.80;;;;;;;;;;106553;1250;62124;-77
2024/03/19 01:07:41;;;;;;;53.90;26.70;;;;;;;;;;106673;1250;62092;-77
2024/03/19 01:10:08;;;;;;;54.80;27.60;;;;;;;;;;106568;1250;62157;-77
2024/03/19 01:12:35;;;;;;;46.80;24.80;;;;;;;;;;106581;1251;62019;-77
2024/03/19 01:15:01;;;;;;;53.90;27.70;;;;;;;;;;106560;1253;62466;-77
2024/03/19 01:17:27;;;;;;;48.80;26.80;;;;;;;;;;106574;1254;62145;-77
2024/03/19 01:19:54;;;;;;;54.90;28.40;;;;;;;;;;106625;1253;62163;-78
2024/03/19 01:22:20;;;;;;;55.10;27.00;;;;;;;;;;106582;1251;62178;-77
2024/03/19 01:24:46;;;;;;;51.00;28.10;;;;;;;;;;106557;1253;63013;-77
2024/03/19 01:27:13;;;;;;;48.30;25.90;;;;;;;;;;106577;1256;62064;-77
2024/03/19 01:29:39;;;;;;;51.70;25.70;;;;;;;;;;106586;1254;62031;-76
2024/03/19 01:32:06;;;;;;;49.20;24.00;;;;;;;;;;106601;1250;62250;-76
2024/03/19 01:34:32;;;;;;;51.40;25.90;;;;;;;;;;106522;1253;61953;-77
2024/03/19 01:36:58;;;;;;;57.60;27.50;;;;;;;;;;106642;1256;62149;-76
2024/03/19 01:39:25;;;;;;;56.70;28.20;;;;;;;;;;106541;1250;62157;-76
2024/03/19 01:41:53;;;;;;;55.00;28.40;;;;;;;;;;106581;1254;62253;-76
2024/03/19 01:44:20;;;;;;;51.30;26.40;;;;;;;;;;106547;1254;61902;-77
2024/03/19 01:46:47;;;;;;;52.20;25.30;;;;;;;;;;109641;1250;59707;-78
2024/03/19 01:49:14;;;;;;;48.50;25.60;;;;;;;;;;109659;1249;59893;-77
2024/03/19 01:51:41;;;;;;;40.30;21.40;;;;;;;;;;109644;1250;59846;-77
2024/03/19 01:54:07;;;;;;;46.10;24.60;;;;;;;;;;109613;1251;62659;-77
2024/03/19 01:56:33;;;;;;;43.80;21.90;;;;;;;;;;109651;1250;59853;-77
2024/03/19 01:58:59;;;;;;;47.10;22.40;;;;;;;;;;109672;1250;59687;-78
2024/03/19 02:01:26;;;;;;;36.20;19.60;;;;;;;;;;109689;1250;59847;-78
2024/03/19 02:03:52;;;;;;;38.80;19.50;;;;;;;;;;107601;1250;62646;-77
2024/03/19 02:06:18;;;;;;;36.00;19.20;;;;;;;;;;106532;1256;62107;-77
2024/03/19 02:08:58;;;;;;;37.10;20.80;;;;;;;;;;106584;1256;61817;-77
2024/03/19 02:11:24;;;;;;;39.10;21.50;;;;;;;;;;106606;1250;62154;-77
2024/03/19 02:13:50;;;;;;;42.00;21.30;;;;;;;;;;106620;1253;62215;-76
2024/03/19 02:16:17;;;;;;;46.20;21.90;;;;;;;;;;106642;1256;62026;-77
2024/03/19 02:18:43;;;;;;;46.90;21.70;;;;;;;;;;106644;1254;62058;-76
2024/03/19 02:21:09;;;;;;;43.20;20.60;;;;;;;;;;106578;1251;62759;-77
2024/03/19 02:23:36;;;;;;;43.70;20.20;;;;;;;;;;106585;1256;62173;-77
2024/03/19 02:26:02;;;;;;;43.30;20.60;;;;;;;;;;106573;1250;62047;-76
2024/03/19 02:28:28;;;;;;;44.30;21.80;;;;;;;;;;106577;1250;61991;-77
2024/03/19 02:30:55;;;;;;;39.00;21.10;;;;;;;;;;106614;1255;62064;-77
2024/03/19 02:33:21;;;;;;;43.40;20.40;;;;;;;;;;106560;1250;62178;-77
2024/03/19 02:35:47;;;;;;;40.50;20.20;;;;;;;;;;106542;1254;62079;-77
2024/03/19 02:38:13;;;;;;;40.50;20.70;;;;;;;;;;106553;1253;61991;-77
2024/03/19 02:40:43;;;;;;;44.40;20.60;;;;;;;;;;106601;1250;62035;-76
2024/03/19 02:43:09;;;;;;;47.80;21.40;;;;;;;;;;106631;1255;63684;-77
2024/03/19 02:45:36;;;;;;;38.20;19.50;;;;;;;;;;106570;1250;62098;-77
2024/03/19 02:48:02;;;;;;;42.80;19.60;;;;;;;;;;108761;1250;61937;-77
2024/03/19 02:50:28;;;;;;;36.00;18.30;;;;;;;;;;109608;1250;59996;-78
2024/03/19 02:52:54;;;;;;;41.40;19.90;;;;;;;;;;109658;1250;59634;-78
2024/03/19 02:55:21;;;;;;;38.70;19.80;;;;;;;;;;109653;1253;59786;-77
2024/03/19 02:57:47;;;;;;;37.20;18.90;;;;;;;;;;109661;1250;59765;-78
2024/03/19 03:00:14;;;;;;;38.50;20.80;;;;;;;;;;109690;1253;59839;-79
2024/03/19 03:02:40;;;;;;;42.50;17.50;;;;;;;;;;109674;1250;59734;-77
2024/03/19 03:05:07;;;;;;;38.50;18.30;;;;;;;;;;109658;1251;59869;-78
2024/03/19 03:07:33;;;;;;;38.60;19.70;;;;;;;;;;109656;1250;59729;-78
2024/03/19 03:09:59;;;;;;;36.20;18.70;;;;;;;;;;109666;1250;59604;-78
2024/03/19 03:12:26;;;;;;;40.60;19.10;;;;;;;;;;109648;1250;59665;-77
2024/03/19 03:14:52;;;;;;;42.20;19.60;;;;;;;;;;109651;1250;59859;-77
2024/03/19 03:17:18;;;;;;;40.90;18.80;;;;;;;;;;109668;1250;59706;-77
2024/03/19 03:19:44;;;;;;;36.60;18.50;;;;;;;;;;106850;1251;62140;-77
2024/03/19 03:22:11;;;;;;;35.80;17.40;;;;;;;;;;106631;1253;62150;-77
2024/03/19 03:24:37;;;;;;;40.20;19.10;;;;;;;;;;106517;1264;62158;-76
2024/03/19 03:27:03;;;;;;;31.70;18.30;;;;;;;;;;106588;1250;62135;-77
2024/03/19 03:29:29;;;;;;;34.60;19.40;;;;;;;;;;106569;1250;61984;-77
2024/03/19 03:31:56;;;;;;;41.90;19.60;;;;;;;;;;106556;1251;62077;-76
2024/03/19 03:34:24;;;;;;;40.00;18.80;;;;;;;;;;106653;1254;62160;-76
2024/03/19 03:36:50;;;;;;;45.00;22.10;;;;;;;;;;106609;1250;62150;-77
2024/03/19 03:39:16;;;;;;;42.90;22.00;;;;;;;;;;106580;1253;61981;-77
2024/03/19 03:41:43;;;;;;;40.10;21.20;;;;;;;;;;106592;1250;62063;-77
2024/03/19 03:44:09;;;;;;;42.60;23.60;;;;;;;;;;107906;1253;62127;-77
2024/03/19 03:46:35;;;;;;;46.30;22.30;;;;;;;;;;109678;1250;59779;-78
2024/03/19 03:49:01;;;;;;;43.70;22.20;;;;;;;;;;109625;1250;59745;-79
2024/03/19 03:51:28;;;;;;;48.10;22.50;;;;;;;;;;109726;1251;60112;-77
2024/03/19 03:53:54;;;;;;;42.00;22.60;;;;;;;;;;109614;1251;59822;-77
2024/03/19 03:56:20;;;;;;;39.00;20.40;;;;;;;;;;108205;1250;62190;-78
2024/03/19 03:58:46;;;;;;;52.10;29.30;;;;;;;;;;106701;1254;61966;-78
2024/03/19 04:01:13;;;;;;;45.20;23.00;;;;;;;;;;106652;1254;62083;-78
2024/03/19 04:03:39;;;;;;;49.20;23.00;;;;;;;;;;106556;1251;62025;-76
2024/03/19 04:06:06;;;;;;;46.60;22.50;;;;;;;;;;106582;1254;61924;-76
2024/03/19 04:08:32;;;;;;;44.70;21.40;;;;;;;;;;106578;1256;62105;-76
2024/03/19 04:10:59;;;;;;;47.90;25.40;;;;;;;;;;106570;1253;62044;-77
2024/03/19 04:13:25;;;;;;;54.30;24.50;;;;;;;;;;109687;1251;59690;-77
2024/03/19 04:15:52;;;;;;;51.40;22.90;;;;;;;;;;109677;1251;59644;-76
2024/03/19 04:18:19;;;;;;;46.90;22.40;;;;;;;;;;109662;1249;60095;-77
2024/03/19 04:20:45;;;;;;;53.80;25.40;;;;;;;;;;109701;1249;59676;-76
2024/03/19 04:23:11;;;;;;;41.40;21.10;;;;;;;;;;109630;1253;59766;-76
2024/03/19 04:25:38;;;;;;;39.80;19.80;;;;;;;;;;109685;1249;59659;-76
2024/03/19 04:28:04;;;;;;;38.70;20.40;;;;;;;;;;109666;1251;59749;-77
2024/03/19 04:30:30;;;;;;;40.70;21.40;;;;;;;;;;109667;1250;59761;-77
2024/03/19 04:32:57;;;;;;;43.50;22.00;;;;;;;;;;109658;1253;59653;-76
2024/03/19 04:35:23;;;;;;;44.20;23.50;;;;;;;;;;109634;1251;59683;-76
2024/03/19 04:37:49;;;;;;;40.00;21.30;;;;;;;;;;109635;1251;59730;-77
2024/03/19 04:40:16;;;;;;;48.20;21.50;;;;;;;;;;109708;1250;59696;-78
2024/03/19 04:42:42;;;;;;;42.90;21.30;;;;;;;;;;109653;1251;59694;-76
2024/03/19 04:45:09;;;;;;;46.40;22.90;;;;;;;;;;109667;1251;60086;-77
2024/03/19 04:47:35;;;;;;;43.40;22.00;;;;;;;;;;109614;1249;59699;-77
2024/03/19 04:50:02;;;;;;;43.90;21.00;;;;;;;;;;109668;1251;59867;-77
2024/03/19 04:52:28;;;;;;;48.70;22.50;;;;;;;;;;109636;1250;59950;-76
2024/03/19 04:54:54;;;;;;;43.10;22.90;;;;;;;;;;108506;1254;62153;-76
2024/03/19 04:57:20;;;;;;;53.00;23.30;;;;;;;;;;109159;1251;62025;-76
2024/03/19 04:59:47;;;;;;;50.20;23.90;;;;;;;;;;109625;1250;59780;-77
2024/03/19 05:02:13;;;;;;;42.90;21.90;;;;;;;;;;109638;1250;59796;-77
2024/03/19 05:04:39;;;;;;;49.10;22.80;;;;;;;;;;109671;1250;59755;-77
2024/03/19 05:07:05;;;;;;;48.10;22.40;;;;;;;;;;109649;1251;59839;-77
2024/03/19 05:09:32;;;;;;;46.90;23.30;;;;;;;;;;109701;1251;59697;-77
2024/03/19 05:11:58;;;;;;;45.10;22.50;;;;;;;;;;109579;1250;59660;-77
2024/03/19 05:14:24;;;;;;;49.40;23.20;;;;;;;;;;109682;1251;59640;-77
2024/03/19 05:16:50;;;;;;;49.50;23.50;;;;;;;;;;109630;1251;59922;-77
2024/03/19 05:19:17;;;;;;;62.50;28.60;;;;;;;;;;109664;1251;59737;-77
2024/03/19 05:21:44;;;;;;;81.90;35.50;;;;;;;;;;109652;1250;59713;-77
2024/03/19 05:24:10;;;;;;;66.30;31.80;;;;;;;;;;109664;1250;59784;-77
2024/03/19 05:26:36;;;;;;;55.10;27.90;;;;;;;;;;109651;1250;59675;-77
2024/03/19 05:29:03;;;;;;;52.20;25.30;;;;;;;;;;109672;1251;59725;-76
2024/03/19 05:31:29;;;;;;;52.40;24.20;;;;;;;;;;109634;1251;59790;-78
2024/03/19 05:33:56;;;;;;;49.10;24.50;;;;;;;;;;109627;1250;60015;-77
2024/03/19 05:36:22;;;;;;;45.10;23.60;;;;;;;;;;109655;1251;60096;-76
2024/03/19 05:38:49;;;;;;;53.50;24.60;;;;;;;;;;109642;1251;59779;-77
2024/03/19 05:41:15;;;;;;;100.50;47.00;;;;;;;;;;109675;1251;60011;-77
2024/03/19 05:43:45;;;;;;;50.90;25.10;;;;;;;;;;109653;1251;59974;-77
2024/03/19 05:46:11;;;;;;;50.50;23.40;;;;;;;;;;109616;1251;59734;-77
2024/03/19 05:48:38;;;;;;;41.80;22.00;;;;;;;;;;109632;1251;59901;-77
2024/03/19 05:51:08;;;;;;;48.30;23.00;;;;;;;;;;109641;1253;59821;-78
2024/03/19 05:53:35;;;;;;;49.30;22.50;;;;;;;;;;109640;1251;62061;-78
2024/03/19 05:56:01;;;;;;;43.30;22.60;;;;;;;;;;109670;1251;59709;-77
2024/03/19 05:58:28;;;;;;;52.50;25.20;;;;;;;;;;109656;1251;60675;-77
2024/03/19 06:01:00;;;;;;;48.90;23.50;;;;;;;;;;109623;1251;59953;-77
2024/03/19 06:03:27;;;;;;;48.70;21.90;;;;;;;;;;109614;1252;60878;-77
2024/03/19 06:05:58;;;;;;;48.70;22.30;;;;;;;;;;109634;1251;63027;-77
2024/03/19 06:08:28;;;;;;;46.90;22.50;;;;;;;;;;109617;1251;59679;-76
2024/03/19 06:10:54;;;;;;;41.50;21.60;;;;;;;;;;109367;1251;226672;-77
2024/03/19 06:13:21;;;;;;;43.60;23.10;;;;;;;;;;106686;1254;62138;-76
2024/03/19 06:15:47;;;;;;;45.50;22.50;;;;;;;;;;106692;1253;62130;-77
2024/03/19 06:18:13;;;;;;;48.90;22.40;;;;;;;;;;106657;1255;62032;-77
2024/03/19 06:20:40;;;;;;;44.70;22.40;;;;;;;;;;106605;1253;63249;-76
2024/03/19 06:23:06;;;;;;;45.00;24.50;;;;;;;;;;106575;1252;62089;-76
2024/03/19 06:25:34;;;;;;;53.40;26.40;;;;;;;;;;106580;1251;62199;-77
2024/03/19 06:28:00;;;;;;;47.60;24.50;;;;;;;;;;106591;1251;61995;-76
2024/03/19 06:30:29;;;;;;;48.00;23.70;;;;;;;;;;106591;1248;62032;-78
2024/03/19 06:32:55;;;;;;;54.90;22.90;;;;;;;;;;106687;1254;62090;-78
2024/03/19 06:35:22;;;;;;;44.20;23.10;;;;;;;;;;106553;1254;62157;-78
2024/03/19 06:37:48;;;;;;;46.00;24.10;;;;;;;;;;106617;1255;61934;-79
2024/03/19 06:40:14;;;;;;;45.80;22.80;;;;;;;;;;106650;1250;60710;-78
2024/03/19 06:42:41;;;;;;;42.20;23.70;;;;;;;;;;106740;1254;62174;-79
2024/03/19 06:45:11;;;;;;;44.30;22.80;;;;;;;;;;106630;1253;62143;-78
2024/03/19 06:47:37;;;;;;;43.10;22.10;;;;;;;;;;106643;1254;62018;-78
2024/03/19 06:50:06;;;;;;;41.60;20.70;;;;;;;;;;106535;1251;62127;-78
2024/03/19 06:52:33;;;;;;;;;;;;;;;;;;106684;1253;62069;-78
2024/03/19 06:54:59;;;;;;;43.10;20.20;;;;;;;;;;108711;1250;61601;-77
2024/03/19 06:57:26;;;;;;;38.50;20.10;;;;;;;;;;109698;1251;59665;-76
2024/03/19 06:59:52;;;;;;;38.00;20.30;;;;;;;;;;109613;1251;59709;-77
2024/03/19 07:02:18;;;;;;;41.50;20.00;;;;;;;;;;109509;1251;59725;-78
2024/03/19 07:04:45;;;;;;;39.90;19.50;;;;;;;;;;109493;1251;60023;-78
2024/03/19 07:07:13;;;;;;;39.30;19.50;;;;;;;;;;109603;1249;59823;-77
2024/03/19 07:09:43;;;;;;;40.80;20.90;;;;;;;;;;109550;1250;59694;-77
2024/03/19 07:12:11;;;;;;;36.20;18.50;;;;;;;;;;109571;1251;60022;-78
2024/03/19 07:14:37;;;;;;;41.60;20.00;;;;;;;;;;109550;1250;60218;-77
2024/03/19 07:17:04;;;;;;;43.40;21.50;;;;;;;;;;109618;1251;59690;-76
2024/03/19 07:19:30;;;;;;;40.60;20.00;;;;;;;;;;109556;1251;60026;-77
2024/03/19 07:21:57;;;;;;;39.80;20.90;;;;;;;;;;109570;1249;59630;-78
2024/03/19 07:24:23;;;;;;;38.10;20.80;;;;;;;;;;109578;1251;60642;-78
2024/03/19 07:26:50;;;;;;;38.90;19.60;;;;;;;;;;109575;1250;59758;-78
2024/03/19 07:29:16;;;;;;;40.20;19.10;;;;;;;;;;109690;1253;59873;-78
2024/03/19 07:31:43;;;;;;;40.20;19.30;;;;;;;;;;109610;1251;59791;-76
2024/03/19 07:34:10;;;;;;;37.50;19.90;;;;;;;;;;109534;1249;59720;-77
2024/03/19 07:36:36;;;;;;;36.50;20.20;;;;;;;;;;109570;1251;59778;-77
2024/03/19 07:39:11;;;;;;;34.10;18.70;;;;;;;;;;109556;1251;59912;-76
2024/03/19 07:41:40;;;;;;;37.40;19.10;;;;;;;;;;109579;1253;59899;-78
2024/03/19 07:44:07;;;;;;;;;;;;;;;;;;109607;1250;62722;-77
2024/03/19 07:46:33;;;;;;;32.80;17.00;;;;;;;;;;109672;1250;60028;-78
2024/03/19 07:48:59;;;;;;;27.10;16.60;;;;;;;;;;109665;1253;59645;-77
2024/03/19 07:51:27;;;;;;;33.20;18.40;;;;;;;;;;109595;1249;60079;-77
2024/03/19 07:53:54;;;;;;;49.60;27.90;;;;;;;;;;109593;1250;59629;-78
2024/03/19 07:56:20;;;;;;;30.80;17.10;;;;;;;;;;109512;1251;62722;-77
2024/03/19 07:58:47;;;;;;;28.30;15.80;;;;;;;;;;109637;1250;59802;-78
2024/03/19 08:01:13;;;;;;;29.00;17.20;;;;;;;;;;109588;1251;60529;-78
2024/03/19 08:03:39;;;;;;;28.30;17.90;;;;;;;;;;109581;1250;59727;-76
2024/03/19 08:06:06;;;;;;;35.10;17.00;;;;;;;;;;109599;1249;59663;-76
2024/03/19 08:08:32;;;;;;;30.80;16.50;;;;;;;;;;109608;1251;60001;-77
2024/03/19 08:10:58;;;;;;;26.10;14.70;;;;;;;;;;109642;1250;60033;-78
2024/03/19 08:13:25;;;;;;;23.60;13.70;;;;;;;;;;109550;1249;59869;-76
2024/03/19 08:15:52;;;;;;;26.90;15.50;;;;;;;;;;109652;1250;59925;-77
2024/03/19 08:18:18;;;;;;;24.30;15.00;;;;;;;;;;109633;1251;59704;-76
2024/03/19 08:20:45;;;;;;;154.80;70.30;;;;;;;;;;109581;1250;59937;-78
2024/03/19 08:23:13;;;;;;;58.30;33.80;;;;;;;;;;109626;1249;59730;-77
2024/03/19 08:25:40;;;;;;;31.70;18.30;;;;;;;;;;109641;1251;59715;-76
2024/03/19 08:28:07;;;;;;;42.90;21.00;;;;;;;;;;109543;1251;60231;-77
2024/03/19 08:30:34;;;;;;;30.10;16.50;;;;;;;;;;109618;1250;60232;-76
2024/03/19 08:33:00;;;;;;;36.50;17.80;;;;;;;;;;109578;1249;59751;-76
2024/03/19 08:35:26;;;;;;;22.80;14.20;;;;;;;;;;107490;1254;62151;-76
2024/03/19 08:37:52;;;;;;;40.40;21.80;;;;;;;;;;106892;1254;62070;-76
2024/03/19 08:40:19;;;;;;;42.10;24.50;;;;;;;;;;107059;1251;62096;-77
2024/03/19 08:42:45;;;;;;;23.50;15.50;;;;;;;;;;109108;1249;61891;-76
2024/03/19 08:45:12;;;;;;;20.30;13.90;;;;;;;;;;109603;1250;59814;-77
2024/03/19 08:47:38;;;;;;;20.20;14.60;;;;;;;;;;109538;1249;59843;-78
2024/03/19 08:50:07;;;;;;;20.80;13.90;;;;;;;;;;109536;1250;60018;-77
2024/03/19 08:52:34;;;;;;;16.60;12.00;;;;;;;;;;109491;1249;60115;-77
2024/03/19 08:55:01;;;;;;;15.00;10.40;;;;;;;;;;109509;1251;59685;-77
2024/03/19 08:57:27;;;;;;;16.30;11.20;;;;;;;;;;109543;1250;63732;-78
2024/03/19 08:59:53;;;;;;;16.30;10.90;;;;;;;;;;109613;1250;59927;-78
2024/03/19 09:02:20;;;;;;;14.00;9.50;;;;;;;;;;109600;1250;59819;-76
2024/03/19 09:04:47;;;;;;;15.30;10.30;;;;;;;;;;109575;1249;59883;-78
2024/03/19 09:07:13;;;;;;;14.80;9.80;;;;;;;;;;109618;1250;59932;-77
2024/03/19 09:09:39;;;;;;;28.90;16.00;;;;;;;;;;109649;1249;59922;-77
2024/03/19 09:12:06;;;;;;;25.30;12.20;;;;;;;;;;109625;1250;60141;-76
2024/03/19 09:14:33;;;;;;;20.30;14.10;;;;;;;;;;109650;1250;60018;-78
2024/03/19 09:16:59;;;;;;;18.90;11.60;;;;;;;;;;109615;1250;59741;-76
2024/03/19 09:19:25;;;;;;;21.40;12.90;;;;;;;;;;109572;1250;59891;-77
2024/03/19 09:21:51;;;;;;;22.20;12.70;;;;;;;;;;109619;1250;59956;-76
2024/03/19 09:24:18;;;;;;;18.00;12.30;;;;;;;;;;109547;1250;59974;-77
2024/03/19 09:26:44;;;;;;;18.90;11.90;;;;;;;;;;109576;1250;59828;-76
2024/03/19 09:29:10;;;;;;;17.60;10.10;;;;;;;;;;109562;1249;60152;-77
2024/03/19 09:31:36;;;;;;;16.80;9.80;;;;;;;;;;109529;1250;59963;-76
2024/03/19 09:34:05;;;;;;;22.90;10.00;;;;;;;;;;109532;1251;60014;-76
2024/03/19 09:36:31;;;;;;;17.00;8.80;;;;;;;;;;109625;1248;59734;-77
2024/03/19 09:38:57;;;;;;;18.30;10.00;;;;;;;;;;109560;1249;59961;-77
2024/03/19 09:41:24;;;;;;;19.30;11.60;;;;;;;;;;109521;1249;59921;-77
2024/03/19 09:43:50;;;;;;;33.40;16.50;;;;;;;;;;109535;1250;59823;-77
2024/03/19 09:46:17;;;;;;;16.70;10.60;;;;;;;;;;109614;1249;59984;-76
2024/03/19 09:48:43;;;;;;;19.80;10.70;;;;;;;;;;109514;1250;60030;-76
2024/03/19 09:51:13;;;;;;;19.00;10.90;;;;;;;;;;109561;1250;59690;-76
2024/03/19 09:53:39;;;;;;;40.70;20.60;;;;;;;;;;109582;1250;59652;-76
2024/03/19 09:56:05;;;;;;;19.00;11.10;;;;;;;;;;109605;1249;59796;-76
2024/03/19 09:58:32;;;;;;;11.00;8.00;;;;;;;;;;109617;1250;59712;-76
2024/03/19 10:01:00;;;;;;;39.10;22.90;;;;;;;;;;109582;1250;59998;-76
2024/03/19 10:03:26;;;;;;;33.60;18.60;;;;;;;;;;109655;1248;60691;-77
2024/03/19 10:05:53;;;;;;;11.10;7.30;;;;;;;;;;109596;1249;59999;-76
2024/03/19 10:08:20;;;;;;;14.90;8.80;;;;;;;;;;109619;1249;59993;-77
2024/03/19 10:10:47;;;;;;;9.60;7.00;;;;;;;;;;109603;1249;60803;-77
2024/03/19 10:13:13;;;;;;;12.60;7.50;;;;;;;;;;107402;1250;60320;-76
2024/03/19 10:15:39;;;;;;;13.00;7.30;;;;;;;;;;106772;1254;62073;-76
2024/03/19 10:18:06;;;;;;;16.30;8.80;;;;;;;;;;106747;1250;62146;-77
2024/03/19 10:20:39;;;;;;;38.80;10.30;;;;;;;;;;106832;1251;61956;-77
2024/03/19 10:23:06;;;;;;;14.80;8.50;;;;;;;;;;106811;1250;63652;-76
2024/03/19 10:25:33;;;;;;;26.70;13.30;;;;;;;;;;106789;1254;59993;-78
2024/03/19 10:28:03;;;;;;;12.40;8.30;;;;;;;;;;106810;1250;62179;-77
2024/03/19 10:30:29;;;;;;;10.10;5.60;;;;;;;;;;106879;1251;62014;-76
2024/03/19 10:32:55;;;;;;;8.30;4.60;;;;;;;;;;106830;1250;60627;-78
2024/03/19 10:35:23;;;;;;;9.80;4.90;;;;;;;;;;106830;1251;62060;-77
2024/03/19 10:37:52;;;;;;;11.10;5.10;;;;;;;;;;109586;1250;59770;-77
2024/03/19 10:40:19;;;;;;;9.00;5.70;;;;;;;;;;109582;1249;60161;-77
2024/03/19 10:42:47;;;;;;;12.20;7.50;;;;;;;;;;109659;1248;59772;-76
2024/03/19 10:45:17;;;;;;;17.50;7.90;;;;;;;;;;109601;1249;59680;-78
2024/03/19 10:47:44;;;;;;;15.10;8.60;;;;;;;;;;109643;1249;62474;-77
2024/03/19 10:50:11;;;;;;;15.60;8.50;;;;;;;;;;109578;1249;60128;-76
2024/03/19 10:52:38;;;;;;;12.50;7.60;;;;;;;;;;109576;1249;60646;-76
2024/03/19 10:55:04;;;;;;;16.10;8.90;;;;;;;;;;109597;1249;59882;-76
2024/03/19 10:57:30;;;;;;;15.10;8.70;;;;;;;;;;109574;1250;59815;-76
2024/03/19 10:59:57;;;;;;;13.60;8.00;;;;;;;;;;109608;1249;59658;-77
2024/03/19 11:02:23;;;;;;;12.60;7.50;;;;;;;;;;109530;1250;59733;-76
2024/03/19 11:04:58;;;;;;;11.60;7.00;;;;;;;;;;109514;1250;59825;-76
2024/03/19 11:07:25;;;;;;;13.20;7.30;;;;;;;;;;109595;1249;59676;-76
2024/03/19 11:09:52;;;;;;;14.50;7.00;;;;;;;;;;109596;1249;59624;-77
2024/03/19 11:12:24;;;;;;;9.70;6.40;;;;;;;;;;109587;1249;64220;-78
2024/03/19 11:14:54;;;;;;;9.80;6.80;;;;;;;;;;109570;1250;59707;-76
2024/03/19 11:17:25;;;;;;;12.10;6.30;;;;;;;;;;108264;1250;60886;-76
2024/03/19 11:19:54;;;;;;;12.30;7.30;;;;;;;;;;106814;1250;62156;-77
2024/03/19 11:22:20;;;;;;;9.10;5.90;;;;;;;;;;106654;1254;62028;-77
2024/03/19 11:24:49;;;;;;;9.90;6.60;;;;;;;;;;106747;1250;62174;-77
2024/03/19 11:27:15;;;;;;;;;;;;;;;;;;106714;1250;62055;-77
2024/03/19 11:29:42;;;;;;;7.90;4.90;;;;;;;;;;106616;1251;62548;-78
2024/03/19 11:32:08;;;;;;;24.50;11.00;;;;;;;;;;106562;1254;62157;-77
2024/03/19 11:34:34;;;;;;;13.50;9.00;;;;;;;;;;106712;1254;62035;-77
2024/03/19 11:37:00;;;;;;;14.00;8.50;;;;;;;;;;106759;1248;64137;-77
2024/03/19 11:39:27;;;;;;;8.00;4.50;;;;;;;;;;106722;1250;62760;-78
2024/03/19 11:41:54;;;;;;;11.30;7.30;;;;;;;;;;106696;1251;62086;-79
2024/03/19 11:44:21;;;;;;;19.50;9.90;;;;;;;;;;107423;1248;61936;-79
2024/03/19 11:46:49;;;;;;;9.90;7.10;;;;;;;;;;106681;1249;62173;-78
2024/03/19 11:49:22;;;;;;;9.00;5.70;;;;;;;;;;106647;1249;62668;-76
2024/03/19 11:51:59;;;;;;;35.20;18.30;;;;;;;;;;106710;1250;62138;-77
2024/03/19 11:54:29;;;;;;;39.30;23.40;;;;;;;;;;106674;1251;62512;-76
2024/03/19 11:56:55;;;;;;;17.00;12.90;;;;;;;;;;106708;1251;62236;-76
2024/03/19 11:59:25;;;;;;;12.40;8.30;;;;;;;;;;106732;1253;62090;-77
2024/03/19 12:01:52;;;;;;;13.50;8.40;;;;;;;;;;106844;1248;62064;-77
2024/03/19 12:04:19;;;;;;;16.30;8.70;;;;;;;;;;106755;1251;62050;-76
2024/03/19 12:06:46;;;;;;;12.20;8.20;;;;;;;;;;106668;1253;62076;-76
2024/03/19 12:09:13;;;;;;;14.00;8.60;;;;;;;;;;106850;1250;62230;-76
2024/03/19 12:11:39;;;;;;;11.90;8.10;;;;;;;;;;106751;1250;62051;-76
2024/03/19 12:14:06;;;;;;;11.40;7.40;;;;;;;;;;106786;1251;62066;-76
2024/03/19 12:16:32;;;;;;;11.30;7.20;;;;;;;;;;106645;1250;62086;-76
2024/03/19 12:18:59;;;;;;;14.30;8.80;;;;;;;;;;106673;1250;62050;-76
2024/03/19 12:21:25;;;;;;;12.80;7.30;;;;;;;;;;106734;1254;62510;-77
2024/03/19 12:23:52;;;;;;;12.80;6.90;;;;;;;;;;106671;1250;61951;-75
2024/03/19 12:26:18;;;;;;;11.40;7.00;;;;;;;;;;106627;1250;62066;-77
2024/03/19 12:28:44;;;;;;;31.10;14.40;;;;;;;;;;106713;1250;62011;-76
2024/03/19 12:31:11;;;;;;;30.40;14.30;;;;;;;;;;106717;1254;62124;-76
2024/03/19 12:33:40;;;;;;;14.10;7.30;;;;;;;;;;106600;1253;62057;-76
2024/03/19 12:36:06;;;;;;;;;;;;;;;;;;106651;1250;61982;-75
2024/03/19 12:38:33;;;;;;;9.60;5.70;;;;;;;;;;106627;1251;62078;-76
2024/03/19 12:40:59;;;;;;;12.30;7.00;;;;;;;;;;106703;1254;62123;-75
2024/03/19 12:43:26;;;;;;;9.60;6.00;;;;;;;;;;106698;1248;62230;-76
2024/03/19 12:45:52;;;;;;;10.30;5.50;;;;;;;;;;106592;1253;63156;-77
2024/03/19 12:48:18;;;;;;;11.60;7.00;;;;;;;;;;106683;1254;61090;-78
2024/03/19 12:50:44;;;;;;;9.50;5.80;;;;;;;;;;106833;1251;61032;-76
2024/03/19 12:53:12;;;;;;;12.00;7.80;;;;;;;;;;106765;1250;62099;-77
2024/03/19 12:55:38;;;;;;;12.20;7.50;;;;;;;;;;106599;1251;62128;-78
2024/03/19 12:58:06;;;;;;;16.60;8.90;;;;;;;;;;106629;1250;62146;-76
2024/03/19 13:00:32;;;;;;;29.50;12.60;;;;;;;;;;106734;1250;61976;-75
2024/03/19 13:02:58;;;;;;;12.70;7.20;;;;;;;;;;106709;1249;62083;-76
2024/03/19 13:05:24;;;;;;;18.60;8.50;;;;;;;;;;106637;1250;63884;-78
2024/03/19 13:07:53;;;;;;;11.60;6.70;;;;;;;;;;106771;1250;62587;-76
2024/03/19 13:10:22;;;;;;;11.90;7.40;;;;;;;;;;107987;1249;62007;-76
2024/03/19 13:12:48;;;;;;;;;;;;;;;;;;106703;1250;62048;-76
2024/03/19 13:15:14;;;;;;;18.70;8.10;;;;;;;;;;106647;1250;62544;-76
2024/03/19 13:17:41;;;;;;;13.80;7.50;;;;;;;;;;106656;1250;62020;-76
2024/03/19 13:20:09;;;;;;;11.40;6.40;;;;;;;;;;106756;1254;62039;-77
2024/03/19 13:22:37;;;;;;;12.70;7.80;;;;;;;;;;106635;1254;62028;-76
2024/03/19 13:25:04;;;;;;;13.20;7.20;;;;;;;;;;106721;1250;61977;-76
2024/03/19 13:27:31;;;;;;;12.60;6.90;;;;;;;;;;106751;1255;62105;-77
2024/03/19 13:29:57;;;;;;;10.80;6.00;;;;;;;;;;106718;1253;62050;-75
2024/03/19 13:32:24;;;;;;;15.70;6.50;;;;;;;;;;106711;1248;62158;-77
2024/03/19 13:34:52;;;;;;;12.10;7.00;;;;;;;;;;106608;1254;62105;-77
2024/03/19 13:37:19;;;;;;;10.80;6.10;;;;;;;;;;106927;1249;62033;-77
2024/03/19 13:39:45;;;;;;;8.80;5.10;;;;;;;;;;106762;1251;62031;-79
2024/03/19 13:42:11;;;;;;;9.00;5.20;;;;;;;;;;106743;1249;62058;-79
2024/03/19 13:44:38;;;;;;;13.80;6.10;;;;;;;;;;106592;1253;61927;-79
2024/03/19 13:47:04;;;;;;;8.70;5.40;;;;;;;;;;106698;1253;62257;-79
2024/03/19 13:49:30;;;;;;;9.20;5.40;;;;;;;;;;106867;1253;62147;-78
2024/03/19 13:51:57;;;;;;;10.20;6.10;;;;;;;;;;106768;1250;61789;-79
2024/03/19 13:54:23;;;;;;;10.10;5.20;;;;;;;;;;106928;1251;60496;-77
2024/03/19 13:56:50;;;;;;;9.30;6.10;;;;;;;;;;107290;1250;60438;-78
2024/03/19 13:59:18;;;;;;;19.40;10.40;;;;;;;;;;107543;1248;62025;-79
2024/03/19 14:01:44;;;;;;;11.90;6.20;;;;;;;;;;107415;1250;61965;-77
2024/03/19 14:04:11;;;;;;;14.20;7.20;;;;;;;;;;107446;1254;63882;-78
2024/03/19 14:06:37;;;;;;;11.30;7.30;;;;;;;;;;107082;1254;61963;-78
2024/03/19 14:09:05;;;;;;;12.00;6.90;;;;;;;;;;106834;1251;62080;-78